EDT,Max TemperatureF,Mean TemperatureF,Min TemperatureF,Max Dew PointF,MeanDew PointF,Min DewpointF,Max Humidity, Mean Humidity, Min Humidity, Max Sea Level PressureIn, Mean Sea Level PressureIn, Min Sea Level PressureIn, Max VisibilityMiles, Mean VisibilityMiles, Min VisibilityMiles, Max Wind SpeedMPH, Mean Wind SpeedMPH, Max Gust SpeedMPH,PrecipitationIn, CloudCover, Events, WindDirDegrees
2013-5-1,81,75,68,73,68,64,97,88,74,30.00,29.94,29.84,10,8,0,32,7,38,1.83,6,Fog-Rain-Thunderstorm,108
2013-5-2,74,71,67,68,67,66,97,90,79,29.95,29.89,29.82,10,8,2,13,3,16,0.33,5,Rain,101
2013-5-3,85,75,64,68,65,64,100,86,55,29.84,29.77,29.72,10,6,0,17,6,22,0.00,3,Fog,291
2013-5-4,83,77,71,68,66,63,84,72,58,29.83,29.76,29.71,10,10,10,25,12,33,T,3,,288
2013-5-5,81,74,66,67,57,48,84,62,32,29.98,29.88,29.80,10,10,10,20,10,24,0.00,2,,312
2013-5-6,81,72,62,62,59,57,84,66,49,30.03,29.99,29.94,10,10,10,16,7,20,0.00,2,,290
2013-5-7,80,70,59,60,57,55,87,65,48,30.08,30.04,30.00,10,10,10,18,6,24,0.00,0,,286
2013-5-8,83,73,62,60,57,47,90,63,30,30.15,30.11,30.06,10,10,10,14,5,18,0.00,0,,295
2013-5-9,89,75,61,64,58,47,90,60,24,30.16,30.12,30.08,10,10,9,12,4,15,0.00,0,,328
2013-5-10,90,78,66,72,67,63,93,69,47,30.14,30.07,30.01,10,10,7,15,5,20,0.00,0,,205
2013-5-11,90,81,71,74,70,63,93,75,41,30.07,30.04,30.00,10,10,10,17,7,25,0.00,1,,192
2013-5-12,89,81,73,74,72,68,100,79,57,30.06,30.01,29.93,10,9,2,17,8,23,0.00,3,,240
2013-5-13,87,79,71,72,63,48,87,59,44,30.12,30.07,30.02,10,10,10,12,8,16,0.00,0,,331
2013-5-14,87,75,63,56,53,48,78,49,26,30.19,30.14,30.10,10,10,10,18,9,25,0.00,0,,57
2013-5-15,87,74,61,60,57,55,84,56,37,30.20,30.14,30.08,10,10,10,15,7,22,0.00,1,,89
2013-5-16,88,76,64,63,58,53,87,57,31,30.12,30.06,30.01,10,10,10,12,5,17,0.00,0,,108
2013-5-17,91,79,67,68,62,56,87,62,32,30.09,30.06,30.03,10,10,10,14,4,22,0.00,2,,41
2013-5-18,91,80,69,70,66,62,100,66,41,30.11,30.07,30.01,10,10,6,16,6,22,0.00,0,,275
2013-5-19,92,82,71,72,68,66,93,79,50,30.10,30.05,29.98,10,8,0,30,3,49,1.04,4,Rain-Thunderstorm,122
2013-5-20,92,82,71,72,68,62,100,75,41,30.07,30.03,29.97,10,10,9,25,5,35,0.00,1,Thunderstorm,95
2013-5-21,91,80,68,72,68,66,93,79,47,30.02,29.96,29.89,10,8,1,18,6,26,0.43,3,Rain-Thunderstorm,102
2013-5-22,89,79,69,72,69,67,97,76,55,29.96,29.94,29.89,10,10,10,17,5,22,0.00,1,,111
2013-5-23,89,80,71,72,69,63,93,71,44,30.03,29.98,29.93,10,10,10,15,6,18,0.00,0,,289
2013-5-24,94,84,74,73,68,59,94,65,38,30.09,30.03,29.98,10,10,10,20,7,25,0.00,0,,355
2013-5-25,90,79,68,70,65,61,90,63,38,30.16,30.11,30.05,10,10,10,17,9,22,0.00,0,,86
2013-5-26,89,78,66,65,62,57,87,61,36,30.19,30.14,30.09,10,10,10,15,8,21,0.00,0,,77
2013-5-27,91,79,67,69,65,61,84,65,44,30.16,30.11,30.03,10,10,10,18,10,23,0.00,2,,78
2013-5-28,88,80,72,73,70,69,93,76,55,30.12,30.06,30.01,10,10,2,25,10,35,0.05,3,Rain-Thunderstorm,106
2013-5-29,86,79,72,72,70,68,93,79,63,30.09,30.05,30.01,10,10,2,26,11,35,0.10,3,Rain,101
2013-5-30,89,80,71,73,70,68,93,77,57,30.06,30.02,29.97,10,10,7,23,12,29,0.01,4,Rain,94
2013-5-31,87,80,73,74,71,70,93,79,61,30.06,30.03,29.99,10,10,7,21,8,25,0.02,4,Rain,99